Time;durP1;ratioP1;P1;durP2;ratioP2;P2;SDS_P1;SDS_P2;PMS_P1;PMS_P2;Temp;Humidity;BMP_temperature;BMP_pressure;BME280_temperature;BME280_humidity;BME280_pressure;Samples;Min_cycle;Max_cycle;Signal;HPM_P1;HPM_P2
2023/12/14 00:00:36;;;;;;;10.38;5.70;;;5.70;99.90;;;;;;4984749;28;20089;-68
2023/12/14 00:03:01;;;;;;;11.98;6.25;;;5.70;99.90;;;;;;4999582;28;20282;-68
2023/12/14 00:05:27;;;;;;;9.73;5.38;;;5.60;99.90;;;;;;5000118;28;20045;-68
2023/12/14 00:07:53;;;;;;;7.72;5.15;;;5.60;99.90;;;;;;5003449;28;20120;-69
2023/12/14 00:10:18;;;;;;;8.98;5.10;;;5.60;99.90;;;;;;5001895;28;20038;-68
2023/12/14 00:12:44;;;;;;;9.32;5.72;;;5.70;99.90;;;;;;5003078;28;20044;-69
2023/12/14 00:15:10;;;;;;;8.80;4.88;;;5.60;99.90;;;;;;5003358;28;20050;-69
2023/12/14 00:17:36;;;;;;;10.68;5.43;;;5.60;99.90;;;;;;5005652;28;20038;-68
2023/12/14 00:20:03;;;;;;;8.32;5.88;;;5.60;99.90;;;;;;5004956;28;20069;-69
2023/12/14 00:22:28;;;;;;;10.20;5.07;;;5.60;99.90;;;;;;5004414;28;20456;-68
2023/12/14 00:24:54;;;;;;;7.25;4.72;;;5.60;99.90;;;;;;5004164;28;20042;-69
2023/12/14 00:27:20;;;;;;;8.40;4.82;;;5.60;99.90;;;;;;4991421;28;20307;-68
2023/12/14 00:29:46;;;;;;;7.10;4.40;;;5.60;99.90;;;;;;5003233;28;20110;-68
2023/12/14 00:32:11;;;;;;;5.60;4.30;;;5.60;99.90;;;;;;5002207;28;20125;-68
2023/12/14 00:34:37;;;;;;;6.18;4.55;;;5.60;99.90;;;;;;4985327;28;20061;-68
2023/12/14 00:37:03;;;;;;;6.30;4.13;;;5.60;99.90;;;;;;5003914;28;20042;-68
2023/12/14 00:39:29;;;;;;;6.45;4.47;;;5.60;99.90;;;;;;5000182;28;20049;-68
2023/12/14 00:41:56;;;;;;;7.40;4.90;;;5.60;99.90;;;;;;4992952;28;20528;-68
2023/12/14 00:44:22;;;;;;;7.18;4.15;;;5.60;99.90;;;;;;5000968;28;20053;-68
2023/12/14 00:46:47;;;;;;;8.00;4.50;;;5.50;99.90;;;;;;4996076;28;20523;-68
2023/12/14 00:49:13;;;;;;;7.30;4.65;;;5.50;99.90;;;;;;4994210;28;20065;-69
2023/12/14 00:51:40;;;;;;;9.75;4.85;;;5.50;99.90;;;;;;4992239;28;20045;-68
2023/12/14 00:54:05;;;;;;;7.20;4.38;;;5.50;99.90;;;;;;5002780;28;20056;-68
2023/12/14 00:56:31;;;;;;;7.50;4.75;;;5.50;99.90;;;;;;5003129;28;20050;-68
2023/12/14 00:58:57;;;;;;;7.57;4.90;;;5.50;99.90;;;;;;4994403;28;20049;-68
2023/12/14 01:01:23;;;;;;;7.53;4.90;;;5.50;99.90;;;;;;4996736;28;20049;-68
2023/12/14 01:03:48;;;;;;;7.15;4.50;;;5.50;99.90;;;;;;4997389;28;20049;-68
2023/12/14 01:06:14;;;;;;;7.35;4.75;;;5.50;99.90;;;;;;4994258;28;20046;-68
2023/12/14 01:08:40;;;;;;;10.27;5.78;;;5.50;99.90;;;;;;4996594;28;20037;-68
2023/12/14 01:11:05;;;;;;;9.23;6.00;;;5.50;99.90;;;;;;5003610;28;20037;-67
2023/12/14 01:13:31;;;;;;;7.93;5.55;;;5.50;99.90;;;;;;5002264;28;20046;-68
2023/12/14 01:15:57;;;;;;;12.82;5.60;;;5.50;99.90;;;;;;4999160;28;20461;-68
2023/12/14 01:18:24;;;;;;;10.40;6.13;;;5.50;99.90;;;;;;4992361;28;20054;-68
2023/12/14 01:20:50;;;;;;;11.90;7.05;;;5.50;99.90;;;;;;4984289;28;20132;-67
2023/12/14 01:23:16;;;;;;;11.88;6.30;;;5.50;99.90;;;;;;5002811;28;20037;-68
2023/12/14 01:25:41;;;;;;;11.82;6.28;;;5.60;99.90;;;;;;4997442;28;20523;-69
2023/12/14 01:28:08;;;;;;;11.68;6.32;;;5.50;99.90;;;;;;4990958;28;20543;-68
2023/12/14 01:30:34;;;;;;;11.35;6.65;;;5.60;99.90;;;;;;4998224;28;20050;-68
2023/12/14 01:32:59;;;;;;;13.93;7.07;;;5.60;99.90;;;;;;4997035;28;20042;-68
2023/12/14 01:35:25;;;;;;;14.00;7.47;;;5.60;99.90;;;;;;4997607;28;20042;-67
2023/12/14 01:37:51;;;;;;;12.40;6.95;;;5.60;99.90;;;;;;4990818;28;20499;-69
2023/12/14 01:40:19;;;;;;;15.88;7.53;;;5.60;99.90;;;;;;4999632;28;20049;-68
2023/12/14 01:42:45;;;;;;;15.15;7.75;;;5.50;99.90;;;;;;4994480;28;20124;-69
2023/12/14 01:45:13;;;;;;;12.52;7.20;;;5.60;99.90;;;;;;4999656;28;20056;-68
2023/12/14 01:47:39;;;;;;;13.93;7.47;;;5.60;99.90;;;;;;4984632;28;20104;-68
2023/12/14 01:50:05;;;;;;;13.65;7.40;;;5.50;99.90;;;;;;4984736;28;20042;-68
2023/12/14 01:52:30;;;;;;;11.75;7.65;;;5.50;99.90;;;;;;4995536;28;20196;-68
2023/12/14 01:54:58;;;;;;;14.35;8.45;;;5.50;99.90;;;;;;5001244;28;20497;-67
2023/12/14 01:57:24;;;;;;;14.85;7.70;;;5.50;99.90;;;;;;4997667;28;20461;-68
2023/12/14 01:59:50;;;;;;;13.35;7.53;;;5.60;99.90;;;;;;4997083;28;20042;-67
2023/12/14 02:02:16;;;;;;;18.23;7.70;;;5.50;99.90;;;;;;5000323;28;20659;-68
2023/12/14 02:04:42;;;;;;;14.18;7.40;;;5.60;99.90;;;;;;4999181;28;20508;-68
2023/12/14 02:07:08;;;;;;;12.43;7.30;;;5.60;99.90;;;;;;4996161;28;20033;-68
2023/12/14 02:09:33;;;;;;;14.35;7.60;;;5.60;99.90;;;;;;5002589;28;20408;-68
2023/12/14 02:11:59;;;;;;;11.45;6.85;;;5.60;99.90;;;;;;5001951;28;20496;-68
2023/12/14 02:14:25;;;;;;;19.10;8.40;;;5.60;99.90;;;;;;4996641;28;20042;-67
2023/12/14 02:16:51;;;;;;;13.02;6.95;;;5.60;99.90;;;;;;4996725;28;20049;-68
2023/12/14 02:19:16;;;;;;;13.15;7.18;;;5.60;99.90;;;;;;5004493;28;20049;-67
2023/12/14 02:21:42;;;;;;;12.70;7.40;;;5.70;99.90;;;;;;5000423;28;20050;-68
2023/12/14 02:24:08;;;;;;;15.10;7.65;;;5.60;99.90;;;;;;5004325;28;20048;-68
2023/12/14 02:26:34;;;;;;;15.15;7.65;;;5.60;99.90;;;;;;4997391;28;20259;-68
2023/12/14 02:29:02;;;;;;;12.07;6.93;;;5.70;99.90;;;;;;4988665;28;20135;-68
2023/12/14 02:31:28;;;;;;;9.32;6.57;;;5.60;99.90;;;;;;5004967;28;20421;-67
2023/12/14 02:33:54;;;;;;;10.65;7.10;;;5.70;99.90;;;;;;5002369;28;20045;-68
2023/12/14 02:36:19;;;;;;;13.80;6.88;;;5.60;99.90;;;;;;5004472;28;20145;-68
2023/12/14 02:38:45;;;;;;;12.82;6.95;;;5.60;99.90;;;;;;5003248;28;20049;-67
2023/12/14 02:41:11;;;;;;;13.82;6.45;;;5.60;99.90;;;;;;5001026;28;20034;-67
2023/12/14 02:43:37;;;;;;;10.35;7.00;;;5.70;99.90;;;;;;5002919;28;20628;-69
2023/12/14 02:46:04;;;;;;;14.32;6.93;;;5.70;99.90;;;;;;5003781;28;20049;-69
2023/12/14 02:48:29;;;;;;;14.30;7.18;;;5.60;99.90;;;;;;5004279;28;20048;-68
2023/12/14 02:50:55;;;;;;;14.70;6.65;;;5.60;99.90;;;;;;5003287;28;20077;-68
2023/12/14 02:53:21;;;;;;;13.63;6.35;;;5.60;99.90;;;;;;4998291;28;20138;-67
2023/12/14 02:55:47;;;;;;;13.00;7.60;;;5.60;99.90;;;;;;5000486;28;20046;-68
2023/12/14 02:58:13;;;;;;;12.05;6.82;;;5.60;99.90;;;;;;5001253;28;20041;-67
2023/12/14 03:00:39;;;;;;;13.23;6.82;;;5.70;99.90;;;;;;5002627;28;20121;-67
2023/12/14 03:03:04;;;;;;;19.48;7.18;;;5.60;99.90;;;;;;5004134;28;20045;-68
2023/12/14 03:05:30;;;;;;;17.33;6.90;;;5.70;99.90;;;;;;5001772;28;20038;-68
2023/12/14 03:07:56;;;;;;;13.90;6.65;;;5.70;99.90;;;;;;5002963;28;20073;-69
2023/12/14 03:10:22;;;;;;;16.42;7.28;;;5.60;99.90;;;;;;5003805;28;20038;-67
2023/12/14 03:12:47;;;;;;;16.65;7.15;;;5.60;99.90;;;;;;4991382;28;20409;-67
2023/12/14 03:15:17;;;;;;;11.18;5.82;;;5.70;99.90;;;;;;5001780;28;20077;-67
2023/12/14 03:17:43;;;;;;;19.30;7.28;;;5.70;99.90;;;;;;5005707;28;20045;-68
2023/12/14 03:20:09;;;;;;;22.05;7.32;;;5.70;99.90;;;;;;5003179;28;20038;-68
2023/12/14 03:22:35;;;;;;;15.13;7.03;;;5.70;99.90;;;;;;4995338;28;20053;-68
2023/12/14 03:25:00;;;;;;;13.43;6.70;;;5.70;99.90;;;;;;5001696;28;20591;-67
2023/12/14 03:27:26;;;;;;;14.40;7.13;;;5.70;99.90;;;;;;4996056;28;20084;-66
2023/12/14 03:29:52;;;;;;;13.68;6.65;;;5.60;99.90;;;;;;4984670;28;20049;-67
2023/12/14 03:32:17;;;;;;;15.75;7.20;;;5.70;99.90;;;;;;5004019;28;20037;-67
2023/12/14 03:34:43;;;;;;;13.68;6.18;;;5.70;99.90;;;;;;5005865;28;20050;-67
2023/12/14 03:37:09;;;;;;;13.80;6.03;;;5.70;99.90;;;;;;5005246;28;20044;-68
2023/12/14 03:39:34;;;;;;;13.60;7.05;;;5.80;99.90;;;;;;5003282;28;20425;-67
2023/12/14 03:42:00;;;;;;;12.88;6.90;;;5.80;99.90;;;;;;4990760;28;20615;-68
2023/12/14 03:44:26;;;;;;;11.88;6.90;;;5.80;99.90;;;;;;5002391;28;20037;-68
2023/12/14 03:46:53;;;;;;;17.33;7.50;;;5.80;99.90;;;;;;5000882;28;20213;-68
2023/12/14 03:49:19;;;;;;;16.23;8.13;;;5.80;99.90;;;;;;5004347;28;20042;-68
2023/12/14 03:51:45;;;;;;;21.05;7.80;;;5.80;99.90;;;;;;4997845;28;20116;-67
2023/12/14 03:54:11;;;;;;;14.65;7.30;;;5.80;99.90;;;;;;5002168;28;20042;-68
2023/12/14 03:56:37;;;;;;;17.27;7.43;;;5.80;99.90;;;;;;5001358;28;20046;-67
2023/12/14 03:59:02;;;;;;;19.27;8.32;;;5.70;99.90;;;;;;5003246;28;20045;-67
2023/12/14 04:01:28;;;;;;;14.77;7.97;;;5.70;99.90;;;;;;4998781;28;20539;-68
2023/12/14 04:03:54;;;;;;;19.05;8.02;;;5.70;99.90;;;;;;5000925;28;20409;-68
2023/12/14 04:06:20;;;;;;;18.08;9.02;;;5.80;99.90;;;;;;5004332;28;20069;-67
2023/12/14 04:08:45;;;;;;;19.52;8.13;;;5.70;99.90;;;;;;4997829;28;20081;-68
2023/12/14 04:11:11;;;;;;;14.98;8.80;;;5.70;99.90;;;;;;4998850;28;20042;-67
2023/12/14 04:13:38;;;;;;;16.13;7.97;;;5.70;99.90;;;;;;5004704;28;20600;-67
2023/12/14 04:16:04;;;;;;;13.80;8.18;;;5.70;99.90;;;;;;5004341;28;20034;-67
2023/12/14 04:18:30;;;;;;;21.15;7.63;;;5.70;99.90;;;;;;5004568;28;20045;-67
2023/12/14 04:20:56;;;;;;;16.88;8.60;;;5.70;99.90;;;;;;5004159;28;20046;-67
2023/12/14 04:23:22;;;;;;;16.98;8.82;;;5.70;99.90;;;;;;5003900;28;20124;-69
2023/12/14 04:25:47;;;;;;;17.02;7.82;;;5.60;99.90;;;;;;5002580;28;20047;-67
2023/12/14 04:28:13;;;;;;;14.95;8.27;;;5.60;99.90;;;;;;5001515;28;20073;-67
2023/12/14 04:30:39;;;;;;;14.38;9.00;;;5.60;99.90;;;;;;4982512;28;20263;-67
2023/12/14 04:33:04;;;;;;;19.85;8.95;;;5.60;99.90;;;;;;5001534;28;20042;-67
2023/12/14 04:35:36;;;;;;;15.10;8.60;;;5.60;99.90;;;;;;4996278;28;20520;-68
2023/12/14 04:38:02;;;;;;;19.23;9.52;;;5.60;99.90;;;;;;4998099;28;20046;-68
2023/12/14 04:40:27;;;;;;;16.10;8.65;;;5.70;99.90;;;;;;5003073;28;20084;-68
2023/12/14 04:42:53;;;;;;;17.52;9.38;;;5.60;99.90;;;;;;5002337;28;20042;-68
2023/12/14 04:45:19;;;;;;;16.90;8.52;;;5.60;99.90;;;;;;4999198;28;20121;-68
2023/12/14 04:47:44;;;;;;;12.80;8.20;;;5.60;99.90;;;;;;5004538;28;20052;-68
2023/12/14 04:50:10;;;;;;;15.60;9.43;;;5.60;99.90;;;;;;4984618;28;20550;-68
2023/12/14 04:52:36;;;;;;;15.73;8.80;;;5.70;99.90;;;;;;4990965;28;20513;-67
2023/12/14 04:55:02;;;;;;;15.95;8.63;;;5.60;99.90;;;;;;5002384;28;20671;-68
2023/12/14 04:57:27;;;;;;;19.90;8.70;;;5.60;99.90;;;;;;4996548;28;20092;-68
2023/12/14 04:59:53;;;;;;;14.68;8.60;;;5.70;99.90;;;;;;4997595;28;20046;-67
2023/12/14 05:02:19;;;;;;;15.15;8.20;;;5.60;99.90;;;;;;5000849;28;20120;-68
2023/12/14 05:04:45;;;;;;;20.90;9.10;;;5.70;99.90;;;;;;4997793;28;20038;-68
2023/12/14 05:07:11;;;;;;;21.23;9.52;;;5.70;99.90;;;;;;4995432;28;20111;-68
2023/12/14 05:09:36;;;;;;;15.98;8.88;;;5.60;99.90;;;;;;5001240;28;20037;-67
2023/12/14 05:12:02;;;;;;;18.23;9.07;;;5.60;99.90;;;;;;5001564;28;20042;-67
2023/12/14 05:14:29;;;;;;;17.15;9.40;;;5.60;99.90;;;;;;5001987;28;20053;-67
2023/12/14 05:16:55;;;;;;;20.33;8.57;;;5.60;99.90;;;;;;5003944;28;20088;-67
2023/12/14 05:19:20;;;;;;;16.58;9.75;;;5.60;99.90;;;;;;5000518;28;20213;-67
2023/12/14 05:21:46;;;;;;;17.90;9.82;;;5.70;99.90;;;;;;5000261;28;20100;-68
2023/12/14 05:24:12;;;;;;;21.50;9.75;;;5.60;99.90;;;;;;5001337;28;20053;-67
2023/12/14 05:26:38;;;;;;;14.45;9.40;;;5.60;99.90;;;;;;5000772;28;20329;-68
2023/12/14 05:29:04;;;;;;;16.75;8.30;;;5.50;99.90;;;;;;5002194;28;20070;-67
2023/12/14 05:31:30;;;;;;;14.38;9.18;;;5.70;99.90;;;;;;4985195;28;20037;-67
2023/12/14 05:33:56;;;;;;;15.75;8.75;;;5.60;99.90;;;;;;5002555;28;20048;-67
2023/12/14 05:36:22;;;;;;;16.90;9.25;;;5.60;99.90;;;;;;4995567;28;20645;-67
2023/12/14 05:38:47;;;;;;;17.83;9.00;;;5.70;99.90;;;;;;4981467;28;20430;-67
2023/12/14 05:41:13;;;;;;;15.10;8.77;;;5.70;99.90;;;;;;5000263;28;20064;-67
2023/12/14 05:43:40;;;;;;;18.80;9.27;;;5.70;99.90;;;;;;5000598;28;20038;-67
2023/12/14 05:46:06;;;;;;;20.30;9.07;;;5.70;99.90;;;;;;5002663;28;20046;-68
2023/12/14 05:48:31;;;;;;;16.40;9.13;;;5.70;99.90;;;;;;5000408;28;20101;-67
2023/12/14 05:50:57;;;;;;;18.38;9.60;;;5.60;99.90;;;;;;5002491;28;20038;-67
2023/12/14 05:53:23;;;;;;;21.45;9.82;;;5.70;99.90;;;;;;4999702;28;20045;-68
2023/12/14 05:55:49;;;;;;;16.42;9.23;;;5.70;99.90;;;;;;4998673;28;20041;-67
2023/12/14 05:58:15;;;;;;;17.27;9.25;;;5.80;99.90;;;;;;4993214;28;20060;-67
2023/12/14 06:00:40;;;;;;;20.10;9.98;;;5.70;99.90;;;;;;4996534;28;20528;-68
2023/12/14 06:03:06;;;;;;;16.67;8.88;;;5.80;99.90;;;;;;4995248;28;20034;-67
2023/12/14 06:05:32;;;;;;;17.48;10.23;;;5.80;99.90;;;;;;4994612;28;20145;-67
2023/12/14 06:07:58;;;;;;;17.40;9.40;;;5.80;99.90;;;;;;4995776;28;20489;-68
2023/12/14 06:10:24;;;;;;;16.52;9.77;;;5.80;99.90;;;;;;4988988;28;20054;-68
2023/12/14 06:12:50;;;;;;;18.00;8.73;;;5.90;99.90;;;;;;4982036;28;20034;-67
2023/12/14 06:15:15;;;;;;;16.92;9.27;;;5.80;99.90;;;;;;4998119;28;20128;-67
2023/12/14 06:17:42;;;;;;;18.23;9.07;;;5.80;99.90;;;;;;5002172;28;20056;-67
2023/12/14 06:20:09;;;;;;;20.88;9.48;;;5.90;99.90;;;;;;4995765;28;20890;-67
2023/12/14 06:22:37;;;;;;;17.02;9.15;;;5.80;99.90;;;;;;4987530;28;20133;-66
2023/12/14 06:25:04;;;;;;;12.88;8.32;;;5.90;99.90;;;;;;4982207;28;20049;-67
2023/12/14 06:27:30;;;;;;;20.92;9.15;;;5.80;99.90;;;;;;4998366;28;20129;-68
2023/12/14 06:29:56;;;;;;;21.02;9.43;;;5.80;99.90;;;;;;4992616;28;20032;-67
2023/12/14 06:32:22;;;;;;;17.17;9.40;;;5.80;99.90;;;;;;4986881;28;20041;-67
2023/12/14 06:34:47;;;;;;;14.77;9.07;;;5.90;99.90;;;;;;4994709;28;20041;-68
2023/12/14 06:37:13;;;;;;;21.67;9.18;;;5.90;99.90;;;;;;4998429;28;20536;-68
2023/12/14 06:39:41;;;;;;;14.50;9.25;;;5.90;99.90;;;;;;4977602;28;20062;-67
2023/12/14 06:42:07;;;;;;;18.90;9.93;;;5.80;99.90;;;;;;4986274;28;20509;-68
2023/12/14 06:44:32;;;;;;;19.05;9.05;;;5.90;99.90;;;;;;4988505;28;20043;-68
2023/12/14 06:46:58;;;;;;;14.82;8.98;;;5.90;99.90;;;;;;4986060;28;20050;-67
2023/12/14 06:49:25;;;;;;;21.00;9.85;;;5.90;99.90;;;;;;4992847;28;20184;-67
2023/12/14 06:51:51;;;;;;;15.95;9.18;;;5.90;99.90;;;;;;4994357;28;20412;-67
2023/12/14 06:54:17;;;;;;;16.73;9.18;;;5.90;99.90;;;;;;4996779;28;20045;-67
2023/12/14 06:56:43;;;;;;;17.85;9.98;;;5.90;99.90;;;;;;4985745;28;20367;-67
2023/12/14 06:59:08;;;;;;;19.08;9.25;;;5.90;99.90;;;;;;4983282;28;20073;-67
2023/12/14 07:01:34;;;;;;;18.38;9.48;;;5.90;99.90;;;;;;4982947;28;20505;-67
2023/12/14 07:04:02;;;;;;;20.10;10.25;;;5.80;99.90;;;;;;4983320;28;20046;-68
2023/12/14 07:06:28;;;;;;;18.77;9.48;;;5.90;99.90;;;;;;4982248;28;20057;-67
2023/12/14 07:08:54;;;;;;;14.10;8.60;;;5.90;99.90;;;;;;4976260;28;20046;-67
2023/12/14 07:11:20;;;;;;;16.15;10.18;;;5.90;99.90;;;;;;4986837;28;20325;-67
2023/12/14 07:13:46;;;;;;;19.58;9.43;;;5.90;99.90;;;;;;4988930;28;20056;-67
2023/12/14 07:16:12;;;;;;;19.52;9.52;;;5.90;99.90;;;;;;4988186;28;20085;-68
2023/12/14 07:18:40;;;;;;;15.32;10.10;;;6.00;99.90;;;;;;4986267;28;20053;-67
2023/12/14 07:21:06;;;;;;;11.77;8.75;;;6.00;99.90;;;;;;4988750;28;20674;-68
2023/12/14 07:23:32;;;;;;;17.20;9.32;;;6.00;99.90;;;;;;4994373;28;20578;-68
2023/12/14 07:25:58;;;;;;;23.02;10.55;;;5.90;99.90;;;;;;5001586;28;20060;-67
2023/12/14 07:28:24;;;;;;;19.00;9.70;;;5.90;99.90;;;;;;5001389;28;20473;-67
2023/12/14 07:30:53;;;;;;;18.40;8.82;;;5.90;99.90;;;;;;4998814;28;20316;-68
2023/12/14 07:33:19;;;;;;;16.90;10.25;;;5.90;99.90;;;;;;4999125;28;20073;-67
2023/12/14 07:35:44;;;;;;;21.42;10.25;;;5.90;99.90;;;;;;4998078;28;20158;-68
2023/12/14 07:38:11;;;;;;;21.05;10.65;;;5.90;99.90;;;;;;5002610;28;20045;-67
2023/12/14 07:40:38;;;;;;;18.17;10.65;;;5.90;99.90;;;;;;5002195;28;20435;-68
2023/12/14 07:43:04;;;;;;;19.27;10.23;;;5.90;99.90;;;;;;5001290;28;20050;-67
2023/12/14 07:45:30;;;;;;;19.63;10.18;;;5.90;99.90;;;;;;5000543;28;20054;-66
2023/12/14 07:47:56;;;;;;;18.30;9.43;;;6.00;99.90;;;;;;5001342;28;20329;-66
2023/12/14 07:50:21;;;;;;;18.73;9.95;;;6.00;99.90;;;;;;5000359;28;20034;-66
2023/12/14 07:52:47;;;;;;;21.02;11.65;;;6.00;99.90;;;;;;5002431;28;20218;-66
2023/12/14 07:55:17;;;;;;;17.35;10.40;;;6.00;99.90;;;;;;4997980;28;20041;-66
2023/12/14 07:57:43;;;;;;;18.48;10.23;;;6.00;99.90;;;;;;5000720;28;20048;-66
2023/12/14 08:00:10;;;;;;;21.77;9.65;;;5.90;99.90;;;;;;5002141;28;20042;-66
2023/12/14 08:02:36;;;;;;;17.33;10.52;;;6.60;99.90;;;;;;5002702;28;20133;-66
2023/12/14 08:05:02;;;;;;;18.13;10.85;;;6.00;99.90;;;;;;5000920;28;20081;-67
2023/12/14 08:07:29;;;;;;;24.40;10.00;;;6.00;99.90;;;;;;5000799;28;20119;-66
2023/12/14 08:09:57;;;;;;;19.67;11.25;;;6.00;99.90;;;;;;4999975;28;20046;-66
2023/12/14 08:12:24;;;;;;;19.33;10.30;;;6.00;99.90;;;;;;5000995;28;20045;-67
2023/12/14 08:14:50;;;;;;;20.27;10.88;;;6.00;99.90;;;;;;5001675;28;20169;-66
2023/12/14 08:17:16;;;;;;;26.40;9.93;;;6.00;99.90;;;;;;5001733;28;20042;-67
2023/12/14 08:19:42;;;;;;;23.52;11.70;;;6.00;99.90;;;;;;5000920;28;20045;-67
2023/12/14 08:22:11;;;;;;;20.55;10.93;;;6.00;99.90;;;;;;5001490;28;20048;-66
2023/12/14 08:24:37;;;;;;;18.25;10.68;;;6.10;99.90;;;;;;5002244;28;20108;-66
2023/12/14 08:27:03;;;;;;;21.45;10.98;;;6.00;99.90;;;;;;5002031;28;20038;-66
2023/12/14 08:29:29;;;;;;;19.17;10.60;;;6.00;99.90;;;;;;5000590;28;20050;-66
2023/12/14 08:31:57;;;;;;;19.48;11.27;;;6.00;99.90;;;;;;4999656;28;20046;-66
2023/12/14 08:34:26;;;;;;;16.58;11.05;;;6.00;99.90;;;;;;5000446;28;20883;-67
2023/12/14 08:36:52;;;;;;;22.33;11.77;;;6.00;99.90;;;;;;5001763;28;20108;-67
2023/12/14 08:39:18;;;;;;;19.85;11.48;;;6.10;99.90;;;;;;5000488;28;20050;-65
2023/12/14 08:41:46;;;;;;;27.08;12.13;;;6.00;99.90;;;;;;5000843;28;20518;-66
2023/12/14 08:44:13;;;;;;;25.08;12.30;;;6.10;99.90;;;;;;4998912;28;20473;-66
2023/12/14 08:46:43;;;;;;;21.80;13.07;;;6.10;99.90;;;;;;5001730;28;20038;-67
2023/12/14 08:49:10;;;;;;;22.63;12.15;;;6.10;99.90;;;;;;5001087;28;20030;-67
2023/12/14 08:51:36;;;;;;;20.10;11.32;;;6.10;99.90;;;;;;5000426;28;20329;-67
2023/12/14 08:54:02;;;;;;;19.38;11.30;;;6.10;99.90;;;;;;5000246;28;20038;-66
2023/12/14 08:56:27;;;;;;;19.05;11.02;;;6.10;99.90;;;;;;5000880;28;20222;-66
2023/12/14 08:58:53;;;;;;;21.63;12.30;;;6.10;99.90;;;;;;5001163;28;20042;-67
2023/12/14 09:01:23;;;;;;;28.80;13.77;;;6.10;99.90;;;;;;5000928;28;20463;-66
2023/12/14 09:03:49;;;;;;;21.85;12.90;;;6.20;99.90;;;;;;4999586;28;20044;-66
2023/12/14 09:06:16;;;;;;;24.70;12.15;;;6.20;99.90;;;;;;5000881;28;20458;-66
2023/12/14 09:08:43;;;;;;;20.83;12.32;;;6.30;99.90;;;;;;5001215;28;20331;-67
2023/12/14 09:11:09;;;;;;;21.88;11.98;;;6.30;99.90;;;;;;5000418;28;20091;-65
2023/12/14 09:13:35;;;;;;;20.63;11.65;;;6.30;99.90;;;;;;5000381;28;20045;-67
2023/12/14 09:16:01;;;;;;;21.92;10.90;;;6.40;99.90;;;;;;4999510;28;20420;-65
2023/12/14 09:18:27;;;;;;;26.80;11.98;;;6.30;99.90;;;;;;4999468;28;20041;-66
2023/12/14 09:20:52;;;;;;;20.55;11.13;;;6.40;99.90;;;;;;5000289;28;20108;-66
2023/12/14 09:23:21;;;;;;;20.98;11.65;;;6.40;99.90;;;;;;5001363;28;20050;-65
2023/12/14 09:25:47;;;;;;;21.73;12.73;;;6.30;99.90;;;;;;5000431;28;20412;-66
2023/12/14 09:28:13;;;;;;;19.15;11.73;;;6.40;99.90;;;;;;5000775;28;20042;-66
2023/12/14 09:30:38;;;;;;;22.25;12.07;;;6.40;99.90;;;;;;5000120;28;20033;-66
2023/12/14 09:33:04;;;;;;;23.13;11.90;;;6.40;99.90;;;;;;5000374;28;20041;-67
2023/12/14 09:35:30;;;;;;;20.30;12.40;;;6.40;99.90;;;;;;5000184;28;20061;-65
2023/12/14 09:37:56;;;;;;;19.77;12.68;;;6.40;99.90;;;;;;4999826;28;20120;-66
2023/12/14 09:40:22;;;;;;;19.88;11.82;;;6.40;99.90;;;;;;4999925;28;20065;-65
2023/12/14 09:42:48;;;;;;;21.25;12.48;;;6.40;99.90;;;;;;5000866;28;20157;-64
2023/12/14 09:45:17;;;;;;;21.98;11.32;;;6.40;99.90;;;;;;4999036;28;20038;-66
2023/12/14 09:47:44;;;;;;;22.52;12.18;;;6.50;99.90;;;;;;4999528;28;20042;-66
2023/12/14 09:50:10;;;;;;;22.65;12.05;;;6.40;99.90;;;;;;5000478;28;20537;-66
2023/12/14 09:52:35;;;;;;;21.20;11.68;;;6.50;99.90;;;;;;4999333;28;20049;-64
2023/12/14 09:55:03;;;;;;;22.90;10.80;;;6.40;99.90;;;;;;5000153;28;20048;-64
2023/12/14 09:57:29;;;;;;;25.42;12.52;;;6.50;99.90;;;;;;5000426;28;20060;-66
2023/12/14 09:59:56;;;;;;;17.95;11.98;;;6.50;99.90;;;;;;5000624;28;20526;-66
2023/12/14 10:02:28;;;;;;;25.85;11.82;;;6.50;99.90;;;;;;4982254;28;20038;-66
2023/12/14 10:04:54;;;;;;;22.05;11.48;;;6.60;99.90;;;;;;5000411;28;20042;-66
2023/12/14 10:07:21;;;;;;;18.02;11.07;;;6.60;99.90;;;;;;4999379;28;20550;-66
2023/12/14 10:09:47;;;;;;;23.55;11.13;;;6.60;99.90;;;;;;5000330;28;20124;-65
2023/12/14 10:12:13;;;;;;;20.85;10.65;;;6.70;99.90;;;;;;4999565;28;20501;-65
2023/12/14 10:14:39;;;;;;;23.77;11.13;;;6.60;99.90;;;;;;5000121;28;20101;-66
2023/12/14 10:17:18;;;;;;;18.20;10.73;;;6.60;99.90;;;;;;4999989;28;20037;-66
2023/12/14 10:19:44;;;;;;;19.92;11.82;;;6.70;99.90;;;;;;4982781;28;20050;-66
2023/12/14 10:22:11;;;;;;;16.50;10.40;;;6.70;99.90;;;;;;5000410;28;20077;-66
2023/12/14 10:24:37;;;;;;;22.02;10.88;;;6.60;99.90;;;;;;5000343;28;20046;-66
2023/12/14 10:27:09;;;;;;;18.13;10.35;;;6.60;99.90;;;;;;5000327;28;20176;-65
2023/12/14 10:29:39;;;;;;;18.73;11.50;;;6.70;99.90;;;;;;5000728;28;20042;-65
2023/12/14 10:32:06;;;;;;;19.80;10.98;;;6.60;99.90;;;;;;4999592;28;20473;-66
2023/12/14 10:34:36;;;;;;;17.88;10.40;;;6.60;99.90;;;;;;5000747;28;20136;-66
2023/12/14 10:37:05;;;;;;;18.63;10.77;;;6.60;99.90;;;;;;4998976;28;20407;-65
2023/12/14 10:39:33;;;;;;;18.98;11.13;;;6.70;99.90;;;;;;5001510;28;20038;-66
2023/12/14 10:42:02;;;;;;;23.35;12.65;;;6.70;99.90;;;;;;5004938;28;20093;-65
2023/12/14 10:44:30;;;;;;;20.27;12.07;;;6.80;99.90;;;;;;5001216;28;20061;-65
2023/12/14 10:46:57;;;;;;;20.25;11.20;;;6.80;99.90;;;;;;5003488;28;20041;-66
2023/12/14 10:49:25;;;;;;;19.15;11.00;;;6.80;99.90;;;;;;5002959;28;20034;-65
2023/12/14 10:51:54;;;;;;;20.25;11.38;;;6.80;99.90;;;;;;5004544;28;20077;-65
2023/12/14 10:54:21;;;;;;;18.25;11.27;;;6.90;99.90;;;;;;5003497;28;20232;-66
2023/12/14 10:56:47;;;;;;;20.90;11.00;;;6.80;99.90;;;;;;5005049;28;20532;-66
2023/12/14 10:59:17;;;;;;;17.00;11.10;;;6.90;99.90;;;;;;5003611;28;20092;-65
2023/12/14 11:01:43;;;;;;;22.48;11.55;;;6.90;99.90;;;;;;5003128;28;20332;-66
2023/12/14 11:04:14;;;;;;;28.70;12.57;;;6.90;99.90;;;;;;5003033;28;20526;-67
2023/12/14 11:06:42;;;;;;;21.90;11.65;;;6.90;99.90;;;;;;5001952;28;20127;-65
2023/12/14 11:09:10;;;;;;;20.15;11.48;;;7.00;99.90;;;;;;5004375;28;20084;-66
2023/12/14 11:11:53;;;;;;;20.52;11.05;;;6.90;99.90;;;;;;5003452;28;20416;-66
2023/12/14 11:14:19;;;;;;;18.42;11.10;;;6.90;99.90;;;;;;5001088;28;20042;-65
2023/12/14 11:16:47;;;;;;;19.98;11.20;;;6.90;99.90;;;;;;5003506;28;20041;-65
2023/12/14 11:19:22;;;;;;;18.95;10.50;;;6.90;99.90;;;;;;5003004;28;20393;-66
2023/12/14 11:21:55;;;;;;;18.33;11.13;;;7.00;99.90;;;;;;5001192;28;20033;-65
2023/12/14 11:24:21;;;;;;;18.40;11.02;;;7.00;99.90;;;;;;5002110;28;20065;-65
2023/12/14 11:26:52;;;;;;;18.92;9.90;;;7.00;99.90;;;;;;5001922;28;20563;-66
2023/12/14 11:29:19;;;;;;;21.63;10.40;;;7.00;99.90;;;;;;5003475;28;20578;-66
2023/12/14 11:31:45;;;;;;;18.63;11.45;;;7.10;99.90;;;;;;4984705;28;20033;-66
2023/12/14 11:34:11;;;;;;;16.02;9.82;;;7.10;99.90;;;;;;5001395;28;20072;-65
2023/12/14 11:36:41;;;;;;;15.60;9.25;;;7.10;99.90;;;;;;5001030;28;20041;-65
2023/12/14 11:39:07;;;;;;;18.10;11.05;;;7.10;99.90;;;;;;5002034;28;20500;-65
2023/12/14 11:41:34;;;;;;;19.02;9.80;;;7.20;99.90;;;;;;5001833;28;20156;-65
2023/12/14 11:43:59;;;;;;;17.48;10.30;;;7.20;99.90;;;;;;5002369;28;20504;-65
2023/12/14 11:46:25;;;;;;;18.17;9.45;;;7.20;99.90;;;;;;5001304;28;20046;-66
2023/12/14 11:48:51;;;;;;;20.35;10.00;;;7.20;99.90;;;;;;5001456;28;20421;-66
2023/12/14 11:51:17;;;;;;;16.13;9.52;;;7.30;99.90;;;;;;5001239;28;20448;-67
2023/12/14 11:53:48;;;;;;;18.55;10.80;;;7.30;99.90;;;;;;5001175;28;20096;-66
2023/12/14 11:56:17;;;;;;;14.85;10.05;;;7.30;99.90;;;;;;5002721;28;20512;-66
2023/12/14 11:58:47;;;;;;;15.77;9.80;;;7.30;99.90;;;;;;5001084;28;20561;-65
2023/12/14 12:01:16;;;;;;;20.83;11.43;;;7.30;99.90;;;;;;5002149;28;20073;-65
2023/12/14 12:03:43;;;;;;;15.63;10.13;;;7.30;99.90;;;;;;4966772;28;20547;-65
2023/12/14 12:06:20;;;;;;;15.85;9.68;;;7.30;99.90;;;;;;5001386;28;20057;-66
2023/12/14 12:08:46;;;;;;;19.23;10.15;;;7.30;99.90;;;;;;5002067;28;20513;-65
2023/12/14 12:11:17;;;;;;;17.17;10.80;;;7.30;99.90;;;;;;5001524;28;20049;-65
2023/12/14 12:13:42;;;;;;;15.52;10.30;;;7.40;99.90;;;;;;5002551;28;20046;-66
2023/12/14 12:16:08;;;;;;;14.98;9.90;;;7.40;99.90;;;;;;4999539;28;20038;-65
2023/12/14 12:18:34;;;;;;;16.65;10.30;;;7.30;99.90;;;;;;5002147;28;20060;-65
2023/12/14 12:21:03;;;;;;;15.82;10.38;;;7.40;99.90;;;;;;5001844;28;20046;-65
2023/12/14 12:23:29;;;;;;;17.38;10.30;;;7.40;99.90;;;;;;4996575;28;20193;-66
2023/12/14 12:25:55;;;;;;;16.95;9.98;;;7.40;99.90;;;;;;4992653;28;20089;-66
2023/12/14 12:28:21;;;;;;;14.77;9.70;;;7.30;99.90;;;;;;4992670;28;20140;-65
2023/12/14 12:30:47;;;;;;;13.48;8.80;;;7.30;99.90;;;;;;4992123;28;20045;-66
2023/12/14 12:33:13;;;;;;;16.70;9.35;;;7.40;99.90;;;;;;4998077;28;20357;-65
2023/12/14 12:35:39;;;;;;;16.58;9.57;;;7.30;99.90;;;;;;5000129;28;20064;-66
2023/12/14 12:38:05;;;;;;;13.93;9.82;;;7.20;99.90;;;;;;4999543;28;20117;-66